sensor_id;sensor_type;location;lat;lon;timestamp;P1;durP1;ratioP1;P2;durP2;ratioP2
19812;SDS011;10066;48.108;11.448;2023-04-03T00:00:32;12.67;;;8.10;;
19812;SDS011;10066;48.108;11.448;2023-04-03T00:02:59;15.13;;;9.30;;
19812;SDS011;10066;48.108;11.448;2023-04-03T00:05:27;20.83;;;10.60;;
19812;SDS011;10066;48.108;11.448;2023-04-03T00:07:54;11.93;;;6.77;;
19812;SDS011;10066;48.108;11.448;2023-04-03T00:10:21;14.60;;;8.60;;
19812;SDS011;10066;48.108;11.448;2023-04-03T00:12:48;14.37;;;8.00;;
19812;SDS011;10066;48.108;11.448;2023-04-03T00:15:15;15.23;;;10.07;;
19812;SDS011;10066;48.108;11.448;2023-04-03T00:17:42;8.80;;;5.70;;
19812;SDS011;10066;48.108;11.448;2023-04-03T00:20:10;14.10;;;9.27;;
19812;SDS011;10066;48.108;11.448;2023-04-03T00:22:39;13.23;;;8.07;;
19812;SDS011;10066;48.108;11.448;2023-04-03T00:25:07;15.37;;;8.63;;
19812;SDS011;10066;48.108;11.448;2023-04-03T00:27:35;11.57;;;7.50;;
19812;SDS011;10066;48.108;11.448;2023-04-03T00:30:05;23.73;;;11.97;;
19812;SDS011;10066;48.108;11.448;2023-04-03T00:32:33;11.40;;;7.07;;
19812;SDS011;10066;48.108;11.448;2023-04-03T00:35:00;20.07;;;12.10;;
19812;SDS011;10066;48.108;11.448;2023-04-03T00:37:27;17.87;;;10.27;;
19812;SDS011;10066;48.108;11.448;2023-04-03T00:39:56;22.20;;;11.90;;
19812;SDS011;10066;48.108;11.448;2023-04-03T00:42:23;21.97;;;11.40;;
19812;SDS011;10066;48.108;11.448;2023-04-03T00:47:53;23.10;;;12.20;;
19812;SDS011;10066;48.108;11.448;2023-04-03T00:50:21;17.13;;;9.53;;
19812;SDS011;10066;48.108;11.448;2023-04-03T00:52:49;12.70;;;6.97;;
19812;SDS011;10066;48.108;11.448;2023-04-03T00:55:18;4.43;;;2.73;;
19812;SDS011;10066;48.108;11.448;2023-04-03T00:57:46;9.90;;;6.20;;
19812;SDS011;10066;48.108;11.448;2023-04-03T01:00:15;21.47;;;12.27;;
19812;SDS011;10066;48.108;11.448;2023-04-03T01:02:44;19.57;;;11.83;;
19812;SDS011;10066;48.108;11.448;2023-04-03T01:05:11;17.13;;;8.47;;
19812;SDS011;10066;48.108;11.448;2023-04-03T01:07:40;21.63;;;11.80;;
19812;SDS011;10066;48.108;11.448;2023-04-03T01:10:08;20.13;;;12.30;;
19812;SDS011;10066;48.108;11.448;2023-04-03T01:12:40;18.80;;;12.20;;
19812;SDS011;10066;48.108;11.448;2023-04-03T01:15:09;13.23;;;6.67;;
19812;SDS011;10066;48.108;11.448;2023-04-03T01:17:40;18.40;;;11.17;;
19812;SDS011;10066;48.108;11.448;2023-04-03T01:20:23;20.60;;;11.60;;
19812;SDS011;10066;48.108;11.448;2023-04-03T01:23:14;22.23;;;12.70;;
19812;SDS011;10066;48.108;11.448;2023-04-03T01:25:53;22.47;;;12.23;;
19812;SDS011;10066;48.108;11.448;2023-04-03T01:28:23;22.93;;;11.67;;
19812;SDS011;10066;48.108;11.448;2023-04-03T01:30:53;20.20;;;10.97;;
19812;SDS011;10066;48.108;11.448;2023-04-03T01:33:28;19.97;;;12.20;;
19812;SDS011;10066;48.108;11.448;2023-04-03T01:35:55;19.97;;;12.33;;
19812;SDS011;10066;48.108;11.448;2023-04-03T01:38:22;19.27;;;11.67;;
19812;SDS011;10066;48.108;11.448;2023-04-03T01:40:49;18.20;;;9.40;;
19812;SDS011;10066;48.108;11.448;2023-04-03T01:43:16;16.00;;;9.07;;
19812;SDS011;10066;48.108;11.448;2023-04-03T01:45:43;20.93;;;12.83;;
19812;SDS011;10066;48.108;11.448;2023-04-03T01:48:11;20.87;;;11.43;;
19812;SDS011;10066;48.108;11.448;2023-04-03T01:50:40;21.57;;;12.20;;
19812;SDS011;10066;48.108;11.448;2023-04-03T01:53:06;21.40;;;12.77;;
19812;SDS011;10066;48.108;11.448;2023-04-03T01:55:34;20.17;;;12.43;;
19812;SDS011;10066;48.108;11.448;2023-04-03T01:58:01;21.43;;;11.93;;
19812;SDS011;10066;48.108;11.448;2023-04-03T02:00:28;21.33;;;10.80;;
19812;SDS011;10066;48.108;11.448;2023-04-03T02:02:55;21.20;;;11.93;;
19812;SDS011;10066;48.108;11.448;2023-04-03T02:05:22;17.17;;;11.17;;
19812;SDS011;10066;48.108;11.448;2023-04-03T02:07:51;18.37;;;10.87;;
19812;SDS011;10066;48.108;11.448;2023-04-03T02:10:18;18.70;;;10.93;;
19812;SDS011;10066;48.108;11.448;2023-04-03T02:12:45;21.57;;;11.97;;
19812;SDS011;10066;48.108;11.448;2023-04-03T02:15:11;20.97;;;10.70;;
19812;SDS011;10066;48.108;11.448;2023-04-03T02:17:38;14.10;;;9.17;;
19812;SDS011;10066;48.108;11.448;2023-04-03T02:20:06;21.83;;;12.53;;
19812;SDS011;10066;48.108;11.448;2023-04-03T02:22:33;18.93;;;11.00;;
19812;SDS011;10066;48.108;11.448;2023-04-03T02:25:02;17.90;;;11.00;;
19812;SDS011;10066;48.108;11.448;2023-04-03T02:27:30;14.73;;;8.83;;
19812;SDS011;10066;48.108;11.448;2023-04-03T02:29:57;19.83;;;11.30;;
19812;SDS011;10066;48.108;11.448;2023-04-03T02:32:24;16.57;;;10.07;;
19812;SDS011;10066;48.108;11.448;2023-04-03T02:34:51;16.07;;;10.07;;
19812;SDS011;10066;48.108;11.448;2023-04-03T02:37:17;17.17;;;9.23;;
19812;SDS011;10066;48.108;11.448;2023-04-03T02:39:44;10.97;;;6.97;;
19812;SDS011;10066;48.108;11.448;2023-04-03T02:42:12;14.43;;;9.43;;
19812;SDS011;10066;48.108;11.448;2023-04-03T02:44:39;17.57;;;10.03;;
19812;SDS011;10066;48.108;11.448;2023-04-03T02:47:06;16.70;;;9.90;;
19812;SDS011;10066;48.108;11.448;2023-04-03T02:49:33;16.00;;;8.87;;
19812;SDS011;10066;48.108;11.448;2023-04-03T02:52:00;11.50;;;8.13;;
19812;SDS011;10066;48.108;11.448;2023-04-03T02:54:27;12.93;;;9.10;;
19812;SDS011;10066;48.108;11.448;2023-04-03T02:56:55;11.70;;;8.43;;
19812;SDS011;10066;48.108;11.448;2023-04-03T02:59:24;12.27;;;8.20;;
19812;SDS011;10066;48.108;11.448;2023-04-03T03:01:51;10.50;;;7.03;;
19812;SDS011;10066;48.108;11.448;2023-04-03T03:04:18;11.40;;;7.57;;
19812;SDS011;10066;48.108;11.448;2023-04-03T03:06:45;12.37;;;8.03;;
19812;SDS011;10066;48.108;11.448;2023-04-03T03:09:13;13.27;;;7.87;;
19812;SDS011;10066;48.108;11.448;2023-04-03T03:11:40;10.57;;;6.23;;
19812;SDS011;10066;48.108;11.448;2023-04-03T03:14:07;13.87;;;7.77;;
19812;SDS011;10066;48.108;11.448;2023-04-03T03:16:35;12.43;;;8.00;;
19812;SDS011;10066;48.108;11.448;2023-04-03T03:19:02;14.87;;;8.40;;
19812;SDS011;10066;48.108;11.448;2023-04-03T03:21:29;11.13;;;8.20;;
19812;SDS011;10066;48.108;11.448;2023-04-03T03:23:56;12.30;;;7.90;;
19812;SDS011;10066;48.108;11.448;2023-04-03T03:26:23;10.37;;;7.93;;
19812;SDS011;10066;48.108;11.448;2023-04-03T03:28:50;7.97;;;6.40;;
19812;SDS011;10066;48.108;11.448;2023-04-03T03:31:17;12.00;;;7.63;;
19812;SDS011;10066;48.108;11.448;2023-04-03T03:33:45;9.97;;;7.30;;
19812;SDS011;10066;48.108;11.448;2023-04-03T03:36:12;12.83;;;7.03;;
19812;SDS011;10066;48.108;11.448;2023-04-03T03:38:40;11.13;;;7.20;;
19812;SDS011;10066;48.108;11.448;2023-04-03T03:41:07;9.37;;;7.00;;
19812;SDS011;10066;48.108;11.448;2023-04-03T03:43:33;8.60;;;6.50;;
19812;SDS011;10066;48.108;11.448;2023-04-03T03:46:01;8.97;;;6.83;;
19812;SDS011;10066;48.108;11.448;2023-04-03T03:48:28;7.50;;;4.73;;
19812;SDS011;10066;48.108;11.448;2023-04-03T03:50:57;9.40;;;6.93;;
19812;SDS011;10066;48.108;11.448;2023-04-03T03:53:24;9.37;;;6.43;;
19812;SDS011;10066;48.108;11.448;2023-04-03T03:55:51;10.90;;;6.33;;
19812;SDS011;10066;48.108;11.448;2023-04-03T03:58:18;8.80;;;6.40;;
19812;SDS011;10066;48.108;11.448;2023-04-03T04:00:45;7.70;;;5.67;;
19812;SDS011;10066;48.108;11.448;2023-04-03T04:03:12;8.97;;;6.30;;
19812;SDS011;10066;48.108;11.448;2023-04-03T04:05:38;11.53;;;5.70;;
19812;SDS011;10066;48.108;11.448;2023-04-03T04:08:07;8.73;;;6.37;;
19812;SDS011;10066;48.108;11.448;2023-04-03T04:10:34;9.43;;;6.03;;
19812;SDS011;10066;48.108;11.448;2023-04-03T04:13:02;8.07;;;5.47;;
19812;SDS011;10066;48.108;11.448;2023-04-03T04:15:29;10.03;;;5.80;;
19812;SDS011;10066;48.108;11.448;2023-04-03T04:17:56;10.37;;;6.70;;
19812;SDS011;10066;48.108;11.448;2023-04-03T04:20:23;8.57;;;5.87;;
19812;SDS011;10066;48.108;11.448;2023-04-03T04:22:50;10.43;;;6.47;;
19812;SDS011;10066;48.108;11.448;2023-04-03T04:25:18;7.47;;;5.87;;
19812;SDS011;10066;48.108;11.448;2023-04-03T04:27:45;9.23;;;6.37;;
19812;SDS011;10066;48.108;11.448;2023-04-03T04:30:13;8.20;;;5.80;;
19812;SDS011;10066;48.108;11.448;2023-04-03T04:32:40;9.53;;;5.83;;
19812;SDS011;10066;48.108;11.448;2023-04-03T04:35:07;8.23;;;6.63;;
19812;SDS011;10066;48.108;11.448;2023-04-03T04:37:34;9.77;;;6.07;;
19812;SDS011;10066;48.108;11.448;2023-04-03T04:40:01;7.30;;;6.23;;
19812;SDS011;10066;48.108;11.448;2023-04-03T04:42:29;9.53;;;6.83;;
19812;SDS011;10066;48.108;11.448;2023-04-03T04:44:56;8.60;;;5.87;;
19812;SDS011;10066;48.108;11.448;2023-04-03T04:47:23;9.20;;;6.17;;
19812;SDS011;10066;48.108;11.448;2023-04-03T04:49:50;9.53;;;6.43;;
19812;SDS011;10066;48.108;11.448;2023-04-03T04:52:17;7.70;;;5.67;;
19812;SDS011;10066;48.108;11.448;2023-04-03T04:54:44;10.70;;;5.47;;
19812;SDS011;10066;48.108;11.448;2023-04-03T04:57:11;9.70;;;6.00;;
19812;SDS011;10066;48.108;11.448;2023-04-03T04:59:39;7.43;;;5.57;;
19812;SDS011;10066;48.108;11.448;2023-04-03T05:02:06;7.83;;;5.60;;
19812;SDS011;10066;48.108;11.448;2023-04-03T05:04:33;7.90;;;6.27;;
19812;SDS011;10066;48.108;11.448;2023-04-03T05:07:00;10.33;;;6.23;;
19812;SDS011;10066;48.108;11.448;2023-04-03T05:09:27;11.00;;;5.60;;
19812;SDS011;10066;48.108;11.448;2023-04-03T05:11:54;10.03;;;5.10;;
19812;SDS011;10066;48.108;11.448;2023-04-03T05:14:21;7.80;;;5.37;;
19812;SDS011;10066;48.108;11.448;2023-04-03T05:16:50;7.40;;;5.83;;
19812;SDS011;10066;48.108;11.448;2023-04-03T05:19:18;5.83;;;4.70;;
19812;SDS011;10066;48.108;11.448;2023-04-03T05:21:46;7.23;;;5.30;;
19812;SDS011;10066;48.108;11.448;2023-04-03T05:24:13;7.33;;;5.80;;
19812;SDS011;10066;48.108;11.448;2023-04-03T05:26:40;6.90;;;5.77;;
19812;SDS011;10066;48.108;11.448;2023-04-03T05:29:07;9.17;;;5.83;;
19812;SDS011;10066;48.108;11.448;2023-04-03T05:31:34;6.40;;;5.27;;
19812;SDS011;10066;48.108;11.448;2023-04-03T05:34:02;8.03;;;5.73;;
19812;SDS011;10066;48.108;11.448;2023-04-03T05:36:29;7.33;;;6.07;;
19812;SDS011;10066;48.108;11.448;2023-04-03T05:38:56;4.17;;;2.50;;
19812;SDS011;10066;48.108;11.448;2023-04-03T05:41:23;9.33;;;4.67;;
19812;SDS011;10066;48.108;11.448;2023-04-03T05:43:50;8.67;;;5.00;;
19812;SDS011;10066;48.108;11.448;2023-04-03T05:46:18;10.27;;;6.07;;
19812;SDS011;10066;48.108;11.448;2023-04-03T05:48:46;11.17;;;6.40;;
19812;SDS011;10066;48.108;11.448;2023-04-03T05:51:15;8.80;;;5.57;;
19812;SDS011;10066;48.108;11.448;2023-04-03T05:53:44;8.40;;;6.20;;
19812;SDS011;10066;48.108;11.448;2023-04-03T05:56:12;9.47;;;6.67;;
19812;SDS011;10066;48.108;11.448;2023-04-03T05:58:40;7.97;;;5.60;;
19812;SDS011;10066;48.108;11.448;2023-04-03T06:01:07;7.63;;;5.83;;
19812;SDS011;10066;48.108;11.448;2023-04-03T06:03:34;7.63;;;6.20;;
19812;SDS011;10066;48.108;11.448;2023-04-03T06:06:02;9.00;;;5.70;;
19812;SDS011;10066;48.108;11.448;2023-04-03T06:08:31;10.67;;;5.80;;
19812;SDS011;10066;48.108;11.448;2023-04-03T06:10:59;6.57;;;5.23;;
19812;SDS011;10066;48.108;11.448;2023-04-03T06:13:27;8.30;;;4.70;;
19812;SDS011;10066;48.108;11.448;2023-04-03T06:15:55;11.63;;;6.90;;
19812;SDS011;10066;48.108;11.448;2023-04-03T06:18:22;7.80;;;5.33;;
19812;SDS011;10066;48.108;11.448;2023-04-03T06:20:49;8.20;;;5.70;;
19812;SDS011;10066;48.108;11.448;2023-04-03T06:23:16;7.57;;;5.30;;
19812;SDS011;10066;48.108;11.448;2023-04-03T06:25:44;6.50;;;5.17;;
19812;SDS011;10066;48.108;11.448;2023-04-03T06:28:12;7.83;;;5.43;;
19812;SDS011;10066;48.108;11.448;2023-04-03T06:30:39;3.93;;;3.00;;
19812;SDS011;10066;48.108;11.448;2023-04-03T06:33:06;3.33;;;2.77;;
19812;SDS011;10066;48.108;11.448;2023-04-03T06:35:33;14.73;;;6.03;;
19812;SDS011;10066;48.108;11.448;2023-04-03T06:38:03;10.70;;;6.43;;
19812;SDS011;10066;48.108;11.448;2023-04-03T06:40:34;8.43;;;6.10;;
19812;SDS011;10066;48.108;11.448;2023-04-03T06:43:03;8.33;;;6.40;;
19812;SDS011;10066;48.108;11.448;2023-04-03T06:45:30;7.03;;;5.93;;
19812;SDS011;10066;48.108;11.448;2023-04-03T06:47:58;7.17;;;5.30;;
19812;SDS011;10066;48.108;11.448;2023-04-03T06:50:25;5.07;;;4.20;;
19812;SDS011;10066;48.108;11.448;2023-04-03T06:52:52;9.47;;;5.77;;
19812;SDS011;10066;48.108;11.448;2023-04-03T06:55:19;7.77;;;5.80;;
19812;SDS011;10066;48.108;11.448;2023-04-03T06:57:46;6.73;;;5.50;;
19812;SDS011;10066;48.108;11.448;2023-04-03T07:00:15;11.57;;;6.10;;
19812;SDS011;10066;48.108;11.448;2023-04-03T07:02:43;8.33;;;5.70;;
19812;SDS011;10066;48.108;11.448;2023-04-03T07:05:10;9.07;;;5.43;;
19812;SDS011;10066;48.108;11.448;2023-04-03T07:07:37;8.40;;;4.83;;
19812;SDS011;10066;48.108;11.448;2023-04-03T07:10:04;7.67;;;5.97;;
19812;SDS011;10066;48.108;11.448;2023-04-03T07:12:32;6.83;;;5.07;;
19812;SDS011;10066;48.108;11.448;2023-04-03T07:14:59;7.50;;;5.20;;
19812;SDS011;10066;48.108;11.448;2023-04-03T07:17:28;4.97;;;3.30;;
19812;SDS011;10066;48.108;11.448;2023-04-03T07:19:55;9.13;;;5.83;;
19812;SDS011;10066;48.108;11.448;2023-04-03T07:22:21;7.60;;;4.40;;
19812;SDS011;10066;48.108;11.448;2023-04-03T07:24:48;10.10;;;5.50;;
19812;SDS011;10066;48.108;11.448;2023-04-03T07:27:16;8.60;;;5.43;;
19812;SDS011;10066;48.108;11.448;2023-04-03T07:29:43;7.47;;;4.97;;
19812;SDS011;10066;48.108;11.448;2023-04-03T07:32:10;8.40;;;5.80;;
19812;SDS011;10066;48.108;11.448;2023-04-03T07:34:38;9.30;;;6.53;;
19812;SDS011;10066;48.108;11.448;2023-04-03T07:37:05;7.13;;;5.67;;
19812;SDS011;10066;48.108;11.448;2023-04-03T07:39:34;6.10;;;4.90;;
19812;SDS011;10066;48.108;11.448;2023-04-03T07:42:01;6.00;;;4.73;;
19812;SDS011;10066;48.108;11.448;2023-04-03T07:44:28;8.53;;;5.37;;
19812;SDS011;10066;48.108;11.448;2023-04-03T07:46:55;8.57;;;5.23;;
19812;SDS011;10066;48.108;11.448;2023-04-03T07:49:22;4.40;;;3.50;;
19812;SDS011;10066;48.108;11.448;2023-04-03T07:51:51;9.10;;;5.20;;
19812;SDS011;10066;48.108;11.448;2023-04-03T07:54:18;8.97;;;6.53;;
19812;SDS011;10066;48.108;11.448;2023-04-03T07:56:45;8.77;;;6.43;;
19812;SDS011;10066;48.108;11.448;2023-04-03T07:59:12;9.63;;;6.53;;
19812;SDS011;10066;48.108;11.448;2023-04-03T08:01:39;6.17;;;4.90;;
19812;SDS011;10066;48.108;11.448;2023-04-03T08:04:06;8.73;;;5.73;;
19812;SDS011;10066;48.108;11.448;2023-04-03T08:06:33;9.10;;;6.20;;
19812;SDS011;10066;48.108;11.448;2023-04-03T08:09:03;10.40;;;5.50;;
19812;SDS011;10066;48.108;11.448;2023-04-03T08:11:30;10.87;;;7.33;;
19812;SDS011;10066;48.108;11.448;2023-04-03T08:13:57;7.70;;;6.00;;
19812;SDS011;10066;48.108;11.448;2023-04-03T08:16:24;8.20;;;5.10;;
19812;SDS011;10066;48.108;11.448;2023-04-03T08:18:53;9.87;;;7.00;;
19812;SDS011;10066;48.108;11.448;2023-04-03T08:21:20;9.53;;;7.53;;
19812;SDS011;10066;48.108;11.448;2023-04-03T08:23:48;9.27;;;7.20;;
19812;SDS011;10066;48.108;11.448;2023-04-03T08:26:18;11.20;;;7.03;;
19812;SDS011;10066;48.108;11.448;2023-04-03T08:28:47;9.77;;;6.50;;
19812;SDS011;10066;48.108;11.448;2023-04-03T08:31:15;4.90;;;3.33;;
19812;SDS011;10066;48.108;11.448;2023-04-03T08:33:43;8.43;;;5.67;;
19812;SDS011;10066;48.108;11.448;2023-04-03T08:36:16;7.83;;;5.73;;
19812;SDS011;10066;48.108;11.448;2023-04-03T08:38:45;7.17;;;5.23;;
19812;SDS011;10066;48.108;11.448;2023-04-03T08:41:14;6.03;;;4.17;;
19812;SDS011;10066;48.108;11.448;2023-04-03T08:43:53;7.50;;;5.10;;
19812;SDS011;10066;48.108;11.448;2023-04-03T08:46:26;10.37;;;6.03;;
19812;SDS011;10066;48.108;11.448;2023-04-03T08:49:04;4.93;;;4.07;;
19812;SDS011;10066;48.108;11.448;2023-04-03T08:51:36;7.93;;;6.10;;
19812;SDS011;10066;48.108;11.448;2023-04-03T08:54:12;7.27;;;5.87;;
19812;SDS011;10066;48.108;11.448;2023-04-03T08:56:48;7.13;;;5.87;;
19812;SDS011;10066;48.108;11.448;2023-04-03T08:59:17;8.70;;;5.50;;
19812;SDS011;10066;48.108;11.448;2023-04-03T09:01:50;6.63;;;5.30;;
19812;SDS011;10066;48.108;11.448;2023-04-03T09:04:18;6.13;;;5.00;;
19812;SDS011;10066;48.108;11.448;2023-04-03T09:06:46;7.67;;;5.03;;
19812;SDS011;10066;48.108;11.448;2023-04-03T09:09:22;9.23;;;5.27;;
19812;SDS011;10066;48.108;11.448;2023-04-03T09:11:58;7.93;;;5.90;;
19812;SDS011;10066;48.108;11.448;2023-04-03T09:14:36;4.73;;;4.10;;
19812;SDS011;10066;48.108;11.448;2023-04-03T09:17:09;7.00;;;5.17;;
19812;SDS011;10066;48.108;11.448;2023-04-03T09:19:43;5.80;;;4.53;;
19812;SDS011;10066;48.108;11.448;2023-04-03T09:22:18;5.40;;;3.80;;
19812;SDS011;10066;48.108;11.448;2023-04-03T09:24:50;8.13;;;5.13;;
19812;SDS011;10066;48.108;11.448;2023-04-03T09:27:23;6.03;;;4.10;;
19812;SDS011;10066;48.108;11.448;2023-04-03T09:29:52;5.93;;;3.00;;
19812;SDS011;10066;48.108;11.448;2023-04-03T09:32:22;7.33;;;4.57;;
19812;SDS011;10066;48.108;11.448;2023-04-03T09:34:53;5.37;;;4.13;;
19812;SDS011;10066;48.108;11.448;2023-04-03T09:37:38;6.13;;;4.50;;
19812;SDS011;10066;48.108;11.448;2023-04-03T09:42:57;7.43;;;4.13;;
19812;SDS011;10066;48.108;11.448;2023-04-03T09:45:28;4.00;;;3.53;;
19812;SDS011;10066;48.108;11.448;2023-04-03T09:48:07;3.57;;;3.07;;
19812;SDS011;10066;48.108;11.448;2023-04-03T09:50:35;3.87;;;3.20;;
19812;SDS011;10066;48.108;11.448;2023-04-03T09:53:06;4.07;;;2.80;;
19812;SDS011;10066;48.108;11.448;2023-04-03T09:55:51;5.83;;;3.10;;
19812;SDS011;10066;48.108;11.448;2023-04-03T09:58:23;3.10;;;2.60;;
19812;SDS011;10066;48.108;11.448;2023-04-03T10:00:57;4.67;;;3.37;;
19812;SDS011;10066;48.108;11.448;2023-04-03T10:03:27;3.43;;;2.77;;
19812;SDS011;10066;48.108;11.448;2023-04-03T10:05:57;4.60;;;3.00;;
19812;SDS011;10066;48.108;11.448;2023-04-03T10:08:26;4.07;;;3.37;;
19812;SDS011;10066;48.108;11.448;2023-04-03T10:13:52;5.03;;;3.67;;
19812;SDS011;10066;48.108;11.448;2023-04-03T10:16:23;6.27;;;4.00;;
19812;SDS011;10066;48.108;11.448;2023-04-03T10:18:57;4.70;;;3.77;;
19812;SDS011;10066;48.108;11.448;2023-04-03T10:21:35;5.10;;;3.40;;
19812;SDS011;10066;48.108;11.448;2023-04-03T10:24:10;7.60;;;4.07;;
19812;SDS011;10066;48.108;11.448;2023-04-03T10:26:43;2.50;;;2.10;;
19812;SDS011;10066;48.108;11.448;2023-04-03T10:29:19;6.30;;;3.60;;
19812;SDS011;10066;48.108;11.448;2023-04-03T10:31:59;5.03;;;3.10;;
19812;SDS011;10066;48.108;11.448;2023-04-03T10:34:39;5.57;;;3.03;;
19812;SDS011;10066;48.108;11.448;2023-04-03T10:37:10;3.80;;;2.53;;
19812;SDS011;10066;48.108;11.448;2023-04-03T10:39:46;4.47;;;2.50;;
19812;SDS011;10066;48.108;11.448;2023-04-03T10:42:21;7.20;;;2.70;;
19812;SDS011;10066;48.108;11.448;2023-04-03T10:45:01;5.33;;;3.27;;
19812;SDS011;10066;48.108;11.448;2023-04-03T10:47:42;2.40;;;1.77;;
19812;SDS011;10066;48.108;11.448;2023-04-03T10:53:07;3.97;;;3.03;;
19812;SDS011;10066;48.108;11.448;2023-04-03T10:55:42;5.00;;;3.70;;
19812;SDS011;10066;48.108;11.448;2023-04-03T10:58:21;4.00;;;3.27;;
19812;SDS011;10066;48.108;11.448;2023-04-03T11:00:54;5.00;;;3.80;;
19812;SDS011;10066;48.108;11.448;2023-04-03T11:03:30;6.03;;;4.20;;
19812;SDS011;10066;48.108;11.448;2023-04-03T11:06:01;4.37;;;3.27;;
19812;SDS011;10066;48.108;11.448;2023-04-03T11:08:33;5.77;;;3.10;;
19812;SDS011;10066;48.108;11.448;2023-04-03T11:11:05;5.37;;;3.53;;
19812;SDS011;10066;48.108;11.448;2023-04-03T11:13:37;7.60;;;3.50;;
19812;SDS011;10066;48.108;11.448;2023-04-03T11:16:08;3.87;;;3.23;;
19812;SDS011;10066;48.108;11.448;2023-04-03T11:18:41;3.37;;;2.17;;
19812;SDS011;10066;48.108;11.448;2023-04-03T11:21:12;2.80;;;1.97;;
19812;SDS011;10066;48.108;11.448;2023-04-03T11:23:46;1.60;;;1.43;;
19812;SDS011;10066;48.108;11.448;2023-04-03T11:26:13;5.47;;;2.50;;
19812;SDS011;10066;48.108;11.448;2023-04-03T11:28:42;3.83;;;2.10;;
19812;SDS011;10066;48.108;11.448;2023-04-03T11:31:14;2.23;;;1.27;;
19812;SDS011;10066;48.108;11.448;2023-04-03T11:33:57;5.60;;;2.40;;
19812;SDS011;10066;48.108;11.448;2023-04-03T11:36:31;4.07;;;2.20;;
19812;SDS011;10066;48.108;11.448;2023-04-03T11:39:07;3.03;;;2.30;;
19812;SDS011;10066;48.108;11.448;2023-04-03T11:41:52;3.60;;;2.20;;
19812;SDS011;10066;48.108;11.448;2023-04-03T11:44:29;3.33;;;2.03;;
19812;SDS011;10066;48.108;11.448;2023-04-03T11:47:00;3.93;;;1.97;;
19812;SDS011;10066;48.108;11.448;2023-04-03T11:58:23;3.53;;;1.80;;
19812;SDS011;10066;48.108;11.448;2023-04-03T12:00:52;2.57;;;1.53;;
19812;SDS011;10066;48.108;11.448;2023-04-03T12:12:41;3.73;;;1.90;;
19812;SDS011;10066;48.108;11.448;2023-04-03T12:21:18;3.07;;;1.70;;
19812;SDS011;10066;48.108;11.448;2023-04-03T12:23:56;3.73;;;1.67;;
19812;SDS011;10066;48.108;11.448;2023-04-03T12:26:32;4.53;;;1.90;;
19812;SDS011;10066;48.108;11.448;2023-04-03T12:29:07;2.90;;;1.43;;
19812;SDS011;10066;48.108;11.448;2023-04-03T12:31:43;3.47;;;1.67;;
19812;SDS011;10066;48.108;11.448;2023-04-03T12:34:24;4.37;;;1.60;;
19812;SDS011;10066;48.108;11.448;2023-04-03T12:37:07;2.50;;;1.33;;
19812;SDS011;10066;48.108;11.448;2023-04-03T12:39:53;2.33;;;1.40;;
19812;SDS011;10066;48.108;11.448;2023-04-03T12:45:22;4.27;;;1.50;;
19812;SDS011;10066;48.108;11.448;2023-04-03T12:47:50;3.80;;;1.60;;
19812;SDS011;10066;48.108;11.448;2023-04-03T12:50:20;2.10;;;0.97;;
19812;SDS011;10066;48.108;11.448;2023-04-03T12:52:51;3.47;;;1.50;;
19812;SDS011;10066;48.108;11.448;2023-04-03T12:55:23;3.73;;;1.27;;
19812;SDS011;10066;48.108;11.448;2023-04-03T12:57:51;2.70;;;1.37;;
19812;SDS011;10066;48.108;11.448;2023-04-03T13:00:19;1.33;;;1.10;;
19812;SDS011;10066;48.108;11.448;2023-04-03T13:02:49;1.80;;;1.20;;
19812;SDS011;10066;48.108;11.448;2023-04-03T13:05:16;2.30;;;1.50;;
19812;SDS011;10066;48.108;11.448;2023-04-03T13:07:45;1.53;;;1.27;;
19812;SDS011;10066;48.108;11.448;2023-04-03T13:10:16;3.80;;;1.47;;
19812;SDS011;10066;48.108;11.448;2023-04-03T13:12:46;1.77;;;1.37;;
19812;SDS011;10066;48.108;11.448;2023-04-03T13:15:24;2.90;;;1.40;;
19812;SDS011;10066;48.108;11.448;2023-04-03T13:17:53;3.17;;;1.40;;
19812;SDS011;10066;48.108;11.448;2023-04-03T13:20:22;2.03;;;1.40;;
19812;SDS011;10066;48.108;11.448;2023-04-03T13:22:52;2.70;;;1.60;;
19812;SDS011;10066;48.108;11.448;2023-04-03T13:25:23;2.30;;;1.20;;
19812;SDS011;10066;48.108;11.448;2023-04-03T13:27:54;2.93;;;1.57;;
19812;SDS011;10066;48.108;11.448;2023-04-03T13:30:24;2.30;;;1.10;;
19812;SDS011;10066;48.108;11.448;2023-04-03T13:32:54;2.33;;;1.40;;
19812;SDS011;10066;48.108;11.448;2023-04-03T13:35:30;2.43;;;1.30;;
19812;SDS011;10066;48.108;11.448;2023-04-03T13:38:04;3.37;;;1.40;;
19812;SDS011;10066;48.108;11.448;2023-04-03T13:40:33;1.00;;;0.90;;
19812;SDS011;10066;48.108;11.448;2023-04-03T13:43:03;2.07;;;0.90;;
19812;SDS011;10066;48.108;11.448;2023-04-03T13:45:32;2.73;;;1.20;;
19812;SDS011;10066;48.108;11.448;2023-04-03T13:48:08;1.67;;;1.10;;
19812;SDS011;10066;48.108;11.448;2023-04-03T13:50:52;3.27;;;1.20;;
19812;SDS011;10066;48.108;11.448;2023-04-03T13:53:22;0.97;;;0.80;;
19812;SDS011;10066;48.108;11.448;2023-04-03T13:55:57;1.47;;;1.20;;
19812;SDS011;10066;48.108;11.448;2023-04-03T13:58:32;2.40;;;1.07;;
19812;SDS011;10066;48.108;11.448;2023-04-03T14:01:00;2.30;;;1.00;;
19812;SDS011;10066;48.108;11.448;2023-04-03T14:03:42;2.00;;;1.20;;
19812;SDS011;10066;48.108;11.448;2023-04-03T14:06:12;2.20;;;1.37;;
19812;SDS011;10066;48.108;11.448;2023-04-03T14:08:40;1.50;;;1.03;;
19812;SDS011;10066;48.108;11.448;2023-04-03T14:11:09;3.60;;;1.40;;
19812;SDS011;10066;48.108;11.448;2023-04-03T14:13:42;1.77;;;1.10;;
19812;SDS011;10066;48.108;11.448;2023-04-03T14:16:14;2.57;;;1.07;;
19812;SDS011;10066;48.108;11.448;2023-04-03T14:18:43;1.47;;;1.20;;
19812;SDS011;10066;48.108;11.448;2023-04-03T14:21:11;2.83;;;1.30;;
19812;SDS011;10066;48.108;11.448;2023-04-03T14:23:39;1.90;;;1.17;;
19812;SDS011;10066;48.108;11.448;2023-04-03T14:26:08;3.63;;;1.40;;
19812;SDS011;10066;48.108;11.448;2023-04-03T14:28:37;2.23;;;1.17;;
19812;SDS011;10066;48.108;11.448;2023-04-03T14:31:07;2.40;;;1.00;;
19812;SDS011;10066;48.108;11.448;2023-04-03T14:33:36;3.83;;;1.20;;
19812;SDS011;10066;48.108;11.448;2023-04-03T14:36:05;2.73;;;1.30;;
19812;SDS011;10066;48.108;11.448;2023-04-03T14:38:38;2.07;;;0.87;;
19812;SDS011;10066;48.108;11.448;2023-04-03T14:41:06;1.57;;;1.17;;
19812;SDS011;10066;48.108;11.448;2023-04-03T14:43:33;1.70;;;1.00;;
19812;SDS011;10066;48.108;11.448;2023-04-03T14:45:59;1.13;;;1.03;;
19812;SDS011;10066;48.108;11.448;2023-04-03T14:48:28;1.87;;;1.07;;
19812;SDS011;10066;48.108;11.448;2023-04-03T14:50:56;2.60;;;1.10;;
19812;SDS011;10066;48.108;11.448;2023-04-03T14:53:23;1.47;;;1.07;;
19812;SDS011;10066;48.108;11.448;2023-04-03T14:55:51;1.57;;;1.00;;
19812;SDS011;10066;48.108;11.448;2023-04-03T14:58:20;1.30;;;0.87;;
19812;SDS011;10066;48.108;11.448;2023-04-03T15:00:47;3.07;;;1.10;;
19812;SDS011;10066;48.108;11.448;2023-04-03T15:03:14;2.00;;;1.07;;
19812;SDS011;10066;48.108;11.448;2023-04-03T15:05:45;2.00;;;1.30;;
19812;SDS011;10066;48.108;11.448;2023-04-03T15:08:17;2.37;;;0.80;;
19812;SDS011;10066;48.108;11.448;2023-04-03T15:10:47;2.00;;;0.80;;
19812;SDS011;10066;48.108;11.448;2023-04-03T15:13:15;1.20;;;0.70;;
19812;SDS011;10066;48.108;11.448;2023-04-03T15:15:42;2.53;;;1.10;;
19812;SDS011;10066;48.108;11.448;2023-04-03T15:18:13;1.60;;;1.07;;
19812;SDS011;10066;48.108;11.448;2023-04-03T15:20:43;1.07;;;0.80;;